Time;durP1;ratioP1;P1;durP2;ratioP2;P2;SDS_P1;SDS_P2;PMS_P1;PMS_P2;Temp;Humidity;BMP_temperature;BMP_pressure;BME280_temperature;BME280_humidity;BME280_pressure;Samples;Min_cycle;Max_cycle;Signal;HPM_P1;HPM_P2
2022/06/11 00:00:15;;;;;;;10.60;9.57;;;;;;;15.52;100.00;101938.44;1057870;27;20040;-79
2022/06/11 00:00:46;;;;;;;11.07;10.07;;;;;;;15.54;100.00;101941.72;1059997;27;20044;-79
2022/06/11 00:01:27;;;;;;;10.88;9.80;;;;;;;15.48;100.00;101939.94;1054012;27;20650;-79
2022/06/11 00:02:03;;;;;;;16.00;10.77;;;;;;;15.45;100.00;101935.00;1059988;27;20046;-79
2022/06/11 00:02:35;;;;;;;11.60;10.38;;;;;;;15.39;100.00;101944.78;1063423;27;20049;-79
2022/06/11 00:03:06;;;;;;;11.52;10.20;;;;;;;15.39;100.00;101942.09;1062369;27;20039;-79
2022/06/11 00:03:39;;;;;;;12.40;10.05;;;;;;;15.45;100.00;101935.00;1060278;27;20035;-79
2022/06/11 00:04:15;;;;;;;18.30;11.10;;;;;;;15.37;100.00;101937.97;1063105;27;20422;-79
2022/06/11 00:04:46;;;;;;;11.55;10.63;;;;;;;15.30;100.00;101934.50;1064199;27;20552;-79
2022/06/11 00:05:20;;;;;;;10.80;9.82;;;;;;;15.39;100.00;101941.25;1065004;27;20042;-79
2022/06/11 00:05:52;;;;;;;13.25;9.98;;;;;;;15.39;100.00;101941.25;1060310;27;20050;-79
2022/06/11 00:06:25;;;;;;;11.98;10.80;;;;;;;15.42;100.00;101936.28;1059219;27;20042;-79
2022/06/11 00:07:03;;;;;;;12.65;10.75;;;;;;;15.45;100.00;101935.81;1056073;28;20043;-79
2022/06/11 00:07:35;;;;;;;10.80;9.80;;;;;;;15.48;100.00;101939.94;1051623;28;20681;-79
2022/06/11 00:08:07;;;;;;;11.57;10.38;;;;;;;15.41;100.00;101947.25;1049397;28;20410;-79
2022/06/11 00:08:39;;;;;;;11.85;10.60;;;;;;;15.33;100.00;101942.13;1050051;28;20040;-79
2022/06/11 00:09:11;;;;;;;12.23;10.88;;;;;;;15.34;100.00;101938.41;1056444;28;20141;-79
2022/06/11 00:09:43;;;;;;;12.38;10.77;;;;;;;15.47;100.00;101938.28;1052475;28;20083;-79
2022/06/11 00:10:15;;;;;;;11.70;10.52;;;;;;;15.48;100.00;101939.94;1052381;28;20126;-79
2022/06/11 00:10:47;;;;;;;13.75;11.07;;;;;;;15.54;100.00;101939.03;1051696;28;20528;-79
2022/06/11 00:11:19;;;;;;;13.77;11.68;;;;;;;15.50;100.00;101935.16;1055101;28;20039;-79
2022/06/11 00:11:52;;;;;;;12.60;11.50;;;;;;;15.59;100.00;101936.53;1054096;28;20172;-79
2022/06/11 00:12:25;;;;;;;13.55;11.68;;;;;;;15.59;100.00;101944.59;1060861;27;20039;-79
2022/06/11 00:12:57;;;;;;;12.40;11.25;;;;;;;15.43;100.00;101937.09;1060222;27;20155;-79
2022/06/11 00:13:29;;;;;;;14.15;11.05;;;;;;;15.47;100.00;101930.22;1061319;27;20161;-79
2022/06/11 00:14:00;;;;;;;14.95;11.52;;;;;;;15.47;100.00;101932.91;1064395;27;20034;-79
2022/06/11 00:14:33;;;;;;;12.52;11.43;;;;;;;15.61;100.00;101937.16;1060621;27;20031;-79
2022/06/11 00:15:06;;;;;;;12.52;11.18;;;;;;;15.61;100.00;101934.47;1060486;28;20035;-79
2022/06/11 00:15:37;;;;;;;12.80;10.80;;;;;;;15.67;100.00;101938.94;1049269;28;20036;-79
2022/06/11 00:16:11;;;;;;;12.75;11.05;;;;;;;15.73;100.00;101945.28;1051584;28;20043;-79
2022/06/11 00:16:43;;;;;;;12.60;11.27;;;;;;;15.73;100.00;101943.41;1047461;28;20049;-79
2022/06/11 00:17:16;;;;;;;13.30;12.05;;;;;;;15.86;100.00;101941.63;1049475;28;20472;-79
2022/06/11 00:17:48;;;;;;;12.07;10.85;;;;;;;15.84;100.00;101943.72;1058645;27;20046;-79
2022/06/11 00:18:21;;;;;;;15.95;12.13;;;;;;;15.91;100.00;101949.84;1061328;27;20031;-79
2022/06/11 00:18:55;;;;;;;13.77;12.05;;;;;;;15.91;100.00;101945.28;1062936;27;20054;-79
2022/06/11 00:19:28;;;;;;;12.82;11.63;;;;;;;15.95;100.00;101937.59;1060354;28;20400;-79
2022/06/11 00:19:59;;;;;;;12.25;11.20;;;;;;;15.85;100.00;101943.47;1059946;28;20039;-79
2022/06/11 00:20:32;;;;;;;12.68;11.40;;;;;;;15.90;100.00;101932.09;1060998;27;20046;-79
2022/06/11 00:21:04;;;;;;;13.32;11.68;;;;;;;15.91;100.00;101947.97;1061276;27;20695;-79
2022/06/11 00:21:38;;;;;;;13.10;11.40;;;;;;;15.94;100.00;101944.84;1064190;27;20151;-79
2022/06/11 00:22:11;;;;;;;12.43;11.32;;;;;;;15.97;100.00;101949.78;1064452;27;20676;-79
2022/06/11 00:22:43;;;;;;;12.15;10.68;;;;;;;15.94;100.00;101949.41;1059413;27;20043;-79
2022/06/11 00:23:15;;;;;;;13.88;11.80;;;;;;;15.93;100.00;101948.56;1060414;27;20046;-81
2022/06/11 00:23:47;;;;;;;11.60;10.70;;;;;;;15.91;100.00;101947.16;1059718;28;20508;-82
2022/06/11 00:24:20;;;;;;;12.15;10.93;;;;;;;15.72;100.00;101944.47;1051771;28;20456;-81
2022/06/11 00:24:52;;;;;;;12.05;10.88;;;;;;;15.72;100.00;101940.97;1047723;28;20067;-81
2022/06/11 00:25:24;;;;;;;12.38;11.18;;;;;;;15.74;100.00;101947.75;1044177;28;20036;-81
2022/06/11 00:25:56;;;;;;;13.18;11.20;;;;;;;15.80;100.00;101946.03;1049309;28;20116;-79
2022/06/11 00:26:28;;;;;;;11.95;10.77;;;;;;;15.81;100.00;101944.16;1052494;28;20405;-79
2022/06/11 00:27:01;;;;;;;13.05;11.80;;;;;;;15.70;100.00;101943.88;1056912;28;20035;-79
2022/06/11 00:27:32;;;;;;;16.85;11.27;;;;;;;15.72;100.00;101944.47;1056225;28;20040;-79
2022/06/11 00:28:05;;;;;;;12.65;11.45;;;;;;;15.65;100.00;101941.03;1055680;28;20050;-79
2022/06/11 00:28:37;;;;;;;13.73;11.82;;;;;;;15.70;100.00;101949.25;1052478;28;20047;-79
2022/06/11 00:29:10;;;;;;;13.48;11.85;;;;;;;15.74;100.00;101942.38;1051917;28;20486;-79
2022/06/11 00:29:43;;;;;;;15.27;12.35;;;;;;;15.64;100.00;101947.44;1054999;28;20046;-79
2022/06/11 00:30:16;;;;;;;14.30;12.30;;;;;;;15.64;100.00;101947.44;1057064;28;20036;-79
2022/06/11 00:30:48;;;;;;;14.95;13.00;;;;;;;15.70;100.00;101953.78;1048515;28;20053;-79
2022/06/11 00:31:20;;;;;;;16.63;12.02;;;;;;;15.73;100.00;101947.97;1049907;28;20047;-81
2022/06/11 00:31:52;;;;;;;12.93;11.73;;;;;;;15.63;100.00;101945.81;1048432;28;20068;-81
2022/06/11 00:32:24;;;;;;;15.52;12.85;;;;;;;15.65;100.00;101946.41;1051268;28;20060;-81
2022/06/11 00:32:56;;;;;;;15.43;12.60;;;;;;;15.70;100.00;101951.09;1055896;28;20035;-81
2022/06/11 00:33:28;;;;;;;14.52;12.85;;;;;;;15.63;100.00;101953.06;1052289;28;20044;-81
2022/06/11 00:34:00;;;;;;;13.50;12.40;;;;;;;15.53;100.00;101950.81;1052542;28;20036;-79
2022/06/11 00:34:31;;;;;;;13.70;12.07;;;;;;;15.49;100.00;101946.94;1052073;28;20036;-79
2022/06/11 00:35:03;;;;;;;15.05;11.77;;;;;;;15.46;100.00;101947.38;1051984;28;20642;-79
2022/06/11 00:35:36;;;;;;;15.63;12.95;;;;;;;15.46;100.00;101950.91;1056597;28;20032;-79
2022/06/11 00:36:09;;;;;;;19.42;13.07;;;;;;;15.44;100.00;101952.16;1053504;28;20047;-79
2022/06/11 00:36:43;;;;;;;19.02;14.43;;;;;;;15.51;100.00;101955.59;1052616;28;20040;-79
2022/06/11 00:37:17;;;;;;;14.57;13.23;;;;;;;15.34;100.00;101952.69;1052970;28;20040;-79
2022/06/11 00:37:49;;;;;;;14.45;13.05;;;;;;;15.32;100.00;101951.22;1057315;28;20044;-79
2022/06/11 00:38:21;;;;;;;16.67;11.70;;;;;;;15.29;100.00;101954.34;1061750;27;20046;-79
2022/06/11 00:38:53;;;;;;;14.45;12.95;;;;;;;15.04;100.00;101952.47;1061019;27;20027;-79
2022/06/11 00:39:28;;;;;;;15.68;13.20;;;;;;;15.09;100.00;101955.34;1060017;28;20035;-79
2022/06/11 00:40:00;;;;;;;15.32;11.80;;;;;;;15.06;100.00;101942.34;1056060;28;20040;-79
2022/06/11 00:40:34;;;;;;;13.82;12.52;;;;;;;15.01;100.00;101942.19;1048605;28;20130;-79
2022/06/11 00:41:08;;;;;;;14.38;13.02;;;;;;;15.03;100.00;101950.84;1048928;28;20040;-79
2022/06/11 00:41:41;;;;;;;16.38;14.18;;;;;;;15.09;100.00;101947.31;1048718;28;20067;-79
2022/06/11 00:42:17;;;;;;;15.70;12.90;;;;;;;15.15;100.00;101943.75;1053167;28;20051;-79
2022/06/11 00:42:49;;;;;;;18.35;15.02;;;;;;;15.12;100.00;101946.88;1052038;28;20094;-79
2022/06/11 00:43:24;;;;;;;18.10;15.35;;;;;;;15.10;100.00;101943.59;1047965;28;20040;-79
2022/06/11 00:43:56;;;;;;;16.55;14.40;;;;;;;15.17;100.00;101950.75;1053337;28;20048;-79
2022/06/11 00:44:28;;;;;;;18.35;15.77;;;;;;;15.19;100.00;101946.00;1052987;28;20040;-79
2022/06/11 00:45:20;;;;;;;20.73;17.65;;;;;;;15.15;100.00;101941.06;1053996;28;20036;-79
2022/06/11 00:46:21;;;;;;;24.38;16.27;;;;;;;15.30;100.00;101950.63;1047587;28;20063;-79
2022/06/11 00:47:04;;;;;;;16.48;15.05;;;;;;;15.36;100.00;101947.91;1057270;28;20035;-79
2022/06/11 00:47:36;;;;;;;19.95;17.33;;;;;;;15.43;100.00;101948.66;1060280;28;20046;-79
2022/06/11 00:48:29;;;;;;;21.55;15.57;;;;;;;15.42;100.00;101948.88;1064050;27;20035;-79
2022/06/11 00:49:03;;;;;;;21.02;15.48;;;;;;;15.46;100.00;101944.69;1060076;27;20153;-79
2022/06/11 00:49:57;;;;;;;22.92;14.50;;;;;;;15.35;100.00;101940.06;1060227;27;20035;-79
2022/06/11 00:50:37;;;;;;;17.38;14.75;;;;;;;15.37;100.00;101943.34;1055833;28;20047;-80
2022/06/11 00:51:18;;;;;;;17.88;14.02;;;;;;;15.27;100.00;101943.84;1052341;28;20123;-80
2022/06/11 00:52:20;;;;;;;16.88;14.52;;;;;;;15.31;100.00;101944.22;1054599;28;20085;-79
2022/06/11 00:52:51;;;;;;;;;;;;;;;15.37;100.00;101944.19;1050898;27;20410;-79
2022/06/11 00:53:34;;;;;;;16.08;12.20;;;;;;;15.28;100.00;101944.66;1056060;27;19919;-79
2022/06/11 00:54:11;;;;;;;15.32;13.10;;;;;;;15.38;100.00;101939.63;1059681;27;20136;-79
2022/06/11 00:54:48;;;;;;;19.08;13.70;;;;;;;15.41;100.00;101939.19;1059130;28;20050;-79
2022/06/11 00:55:27;;;;;;;15.60;12.60;;;;;;;15.38;100.00;101940.44;1054354;28;20050;-79
2022/06/11 00:56:00;;;;;;;16.65;12.25;;;;;;;15.41;100.00;101944.56;1055826;28;20237;-79
2022/06/11 00:56:38;;;;;;;20.25;12.55;;;;;;;15.34;100.00;101938.41;1056215;28;20580;-81
2022/06/11 00:57:11;;;;;;;15.60;12.95;;;;;;;15.31;100.00;101944.22;1050409;28;20037;-81
2022/06/11 00:57:55;;;;;;;17.20;12.55;;;;;;;15.24;100.00;101935.41;1047750;28;20044;-81
2022/06/11 00:58:31;;;;;;;14.80;12.10;;;;;;;15.49;100.00;101933.50;1046602;28;20498;-81
2022/06/11 00:59:05;;;;;;;18.90;11.57;;;;;;;15.46;100.00;101942.00;1053494;28;20042;-81
2022/06/11 00:59:44;;;;;;;16.45;12.68;;;;;;;15.38;100.00;101937.75;1055177;28;20048;-81
2022/06/11 01:00:23;;;;;;;16.25;11.85;;;;;;;15.38;100.00;101937.75;1058583;28;20664;-82
2022/06/11 01:00:57;;;;;;;19.33;12.20;;;;;;;15.32;100.00;101938.63;1058719;28;20044;-81
2022/06/11 01:01:29;;;;;;;16.13;12.32;;;;;;;15.40;100.00;101938.34;1058752;28;20027;-82
2022/06/11 01:02:02;;;;;;;17.33;12.55;;;;;;;15.44;100.00;101928.00;1055893;28;20042;-80
2022/06/11 01:02:34;;;;;;;14.60;12.23;;;;;;;15.48;100.00;101939.94;1057000;28;20440;-79
2022/06/11 01:03:06;;;;;;;22.73;13.00;;;;;;;15.39;100.00;101936.72;1054047;28;20036;-80
2022/06/11 01:03:41;;;;;;;15.18;11.30;;;;;;;15.43;100.00;101937.91;1056524;28;20070;-79
2022/06/11 01:04:50;;;;;;;18.40;12.07;;;;;;;15.35;100.00;101937.38;1055109;28;20046;-80
2022/06/11 01:05:34;;;;;;;15.52;11.10;;;;;;;15.36;100.00;101939.84;1048872;28;20056;-79
2022/06/11 01:06:31;;;;;;;15.57;11.15;;;;;;;15.30;100.00;101937.19;1049942;28;20532;-80
2022/06/11 01:07:13;;;;;;;11.23;9.88;;;;;;;15.26;100.00;101941.38;1039323;28;20045;-78
2022/06/11 01:08:00;;;;;;;15.23;11.15;;;;;;;15.22;100.00;101937.50;1042870;28;20042;-78
2022/06/11 01:08:45;;;;;;;11.40;10.25;;;;;;;15.26;100.00;101946.75;1059674;27;20035;-78
2022/06/11 01:09:26;;;;;;;13.88;10.85;;;;;;;15.33;100.00;101945.63;1060981;27;20039;-78
2022/06/11 01:10:19;;;;;;;14.73;10.63;;;;;;;15.35;100.00;101940.06;1064267;27;20058;-78
2022/06/11 01:10:57;;;;;;;16.15;10.45;;;;;;;15.33;100.00;101934.06;1064114;27;20043;-78
2022/06/11 01:11:57;;;;;;;14.13;9.95;;;;;;;15.39;100.00;101938.59;1060196;27;20416;-78
2022/06/11 01:12:47;;;;;;;16.45;10.13;;;;;;;15.37;100.00;101940.66;1054486;27;20047;-78
2022/06/11 01:13:45;;;;;;;13.63;10.10;;;;;;;15.35;100.00;101934.69;1063004;27;20050;-78
2022/06/11 01:14:26;;;;;;;12.98;10.05;;;;;;;15.30;100.00;101940.72;1049135;28;20048;-78
2022/06/11 01:15:12;;;;;;;11.40;10.23;;;;;;;15.37;100.00;101930.75;1051760;27;22135;-78
2022/06/11 01:15:48;;;;;;;13.15;9.80;;;;;;;15.42;100.00;101935.44;1061008;27;20503;-78
2022/06/11 01:16:33;;;;;;;13.55;8.88;;;;;;;15.36;100.00;101936.34;1061082;27;20039;-78
2022/06/11 01:17:29;;;;;;;15.77;9.18;;;;;;;15.42;100.00;101940.81;1061136;27;20035;-78
2022/06/11 01:18:15;;;;;;;17.67;9.70;;;;;;;15.36;100.00;101942.53;1063101;27;20570;-78
2022/06/11 01:19:19;;;;;;;11.57;8.65;;;;;;;15.43;100.00;101945.16;1062053;27;20108;-78
2022/06/11 01:20:21;;;;;;;10.88;8.60;;;;;;;15.33;100.00;101939.44;1061024;27;20039;-78
2022/06/11 01:21:24;;;;;;;13.23;8.35;;;;;;;15.34;100.00;101938.41;1063942;27;20039;-78
2022/06/11 01:22:14;;;;;;;9.25;7.40;;;;;;;15.35;100.00;101938.22;1061348;27;20043;-78
2022/06/11 01:23:20;;;;;;;8.60;6.90;;;;;;;15.31;100.00;101949.59;1062953;27;20125;-78
2022/06/11 01:24:26;;;;;;;10.20;7.13;;;;;;;15.27;100.00;101943.00;1055563;28;20067;-78
2022/06/11 01:25:07;;;;;;;11.07;7.28;;;;;;;15.27;100.00;101946.53;1058938;27;20293;-78
2022/06/11 01:26:33;;;;;;;10.55;6.57;;;;;;;15.24;100.00;101938.09;1054212;28;20036;-80
2022/06/11 01:27:11;;;;;;;15.82;7.03;;;;;;;15.22;100.00;101942.84;1043913;28;20140;-80
2022/06/11 01:27:47;;;;;;;10.77;6.05;;;;;;;15.23;100.00;101939.13;1047788;28;20040;-80
2022/06/11 01:28:44;;;;;;;13.20;7.03;;;;;;;15.22;100.00;101948.22;1043947;28;20090;-80
2022/06/11 01:29:54;;;;;;;8.98;7.10;;;;;;;15.23;100.00;101941.81;1048031;28;20044;-80
2022/06/11 01:30:29;;;;;;;14.82;6.05;;;;;;;15.17;100.00;101940.84;1055303;28;20164;-80
2022/06/11 01:31:19;;;;;;;9.55;5.68;;;;;;;15.17;100.00;101942.69;1052174;28;20067;-80
2022/06/11 01:32:01;;;;;;;6.45;4.90;;;;;;;15.06;100.00;101945.03;1052506;28;20226;-80
2022/06/11 01:33:07;;;;;;;6.78;5.68;;;;;;;15.08;100.00;101945.66;1043854;28;20044;-80
2022/06/11 01:34:00;;;;;;;7.47;5.85;;;;;;;15.00;100.00;101943.22;1046279;28;20036;-80
2022/06/11 01:34:40;;;;;;;8.93;5.03;;;;;;;15.02;100.00;101938.47;1047355;28;20341;-80
2022/06/11 01:35:56;;;;;;;9.40;5.40;;;;;;;15.04;100.00;101944.44;1044356;28;20299;-77
2022/06/11 01:36:31;;;;;;;7.50;5.55;;;;;;;14.89;100.00;101941.28;1042684;28;20076;-77
2022/06/11 01:37:08;;;;;;;9.00;5.50;;;;;;;14.86;100.00;101941.72;1046438;28;20041;-78
2022/06/11 01:37:45;;;;;;;7.25;5.20;;;;;;;14.88;100.00;101944.16;1039693;28;20045;-77
2022/06/11 01:38:40;;;;;;;7.28;5.40;;;;;;;14.67;100.00;101939.97;1037825;28;20052;-78
2022/06/11 01:39:34;;;;;;;8.13;5.13;;;;;;;14.70;100.00;101944.91;1035678;28;21260;-78
2022/06/11 01:40:24;;;;;;;10.60;5.93;;;;;;;14.74;100.00;101940.75;1038671;28;20560;-78
2022/06/11 01:41:54;;;;;;;11.95;5.72;;;;;;;14.81;100.00;101939.69;1041368;28;20304;-78
2022/06/11 01:42:31;;;;;;;5.80;5.20;;;;;;;14.68;100.00;101939.75;1025409;28;20059;-77
2022/06/11 01:43:17;;;;;;;6.80;6.13;;;;;;;14.55;100.00;101934.50;1031603;28;20135;-78
2022/06/11 01:43:54;;;;;;;9.88;6.65;;;;;;;14.53;100.00;101934.72;1027911;28;20051;-78
2022/06/11 01:44:29;;;;;;;6.25;4.95;;;;;;;14.52;100.00;101941.09;1024958;28;20125;-78
2022/06/11 01:45:04;;;;;;;7.82;5.75;;;;;;;14.44;100.00;101944.03;1026781;28;20046;-77
2022/06/11 01:45:37;;;;;;;6.40;5.53;;;;;;;14.50;100.00;101936.97;1029510;28;20055;-78
2022/06/11 01:46:19;;;;;;;11.32;6.45;;;;;;;14.49;100.00;101943.38;1031280;28;20571;-77
2022/06/11 01:46:53;;;;;;;9.73;5.63;;;;;;;14.45;100.00;101934.94;1035602;28;20884;-78
2022/06/11 01:47:24;;;;;;;9.23;6.15;;;;;;;14.31;100.00;101938.72;1031292;28;20050;-77
2022/06/11 01:47:57;;;;;;;7.25;5.88;;;;;;;14.36;100.00;101941.56;1036187;28;20055;-78
2022/06/11 01:48:29;;;;;;;7.03;6.07;;;;;;;14.37;100.00;101940.53;1048685;28;20036;-77
2022/06/11 01:49:03;;;;;;;6.65;5.25;;;;;;;14.34;100.00;101943.63;1052014;28;20298;-77
2022/06/11 01:49:39;;;;;;;6.57;4.72;;;;;;;14.10;100.00;101941.69;1052183;28;20290;-77
2022/06/11 01:50:16;;;;;;;7.00;5.25;;;;;;;14.20;100.00;101940.19;1049769;28;20048;-77
2022/06/11 01:51:01;;;;;;;7.00;5.72;;;;;;;14.26;100.00;101929.69;1050672;28;20293;-77
2022/06/11 01:51:46;;;;;;;6.15;4.78;;;;;;;14.36;100.00;101930.03;1047720;28;20307;-77
2022/06/11 01:52:55;;;;;;;6.97;6.03;;;;;;;14.30;100.00;101930.88;1052703;28;20036;-78
2022/06/11 01:53:57;;;;;;;8.25;6.40;;;;;;;14.25;100.00;101928.84;1053615;28;20325;-78
2022/06/11 01:54:28;;;;;;;8.02;5.05;;;;;;;14.03;100.00;101940.91;1039301;28;20053;-77
2022/06/11 01:55:00;;;;;;;8.70;5.32;;;;;;;14.07;100.00;101932.22;1044144;28;20689;-78
2022/06/11 01:55:59;;;;;;;6.13;5.00;;;;;;;14.14;100.00;101937.53;1052268;28;20048;-77
2022/06/11 01:56:40;;;;;;;7.70;5.65;;;;;;;14.05;100.00;101933.47;1054174;28;20295;-77
2022/06/11 01:57:26;;;;;;;7.90;5.80;;;;;;;14.10;100.00;101937.16;1055012;28;20042;-77
2022/06/11 01:58:10;;;;;;;6.57;5.00;;;;;;;14.12;100.00;101935.06;1052311;28;20236;-77
2022/06/11 01:59:11;;;;;;;11.48;5.53;;;;;;;14.07;100.00;101936.75;1054844;28;20040;-77
2022/06/11 02:00:09;;;;;;;9.75;5.72;;;;;;;14.13;100.00;101935.91;1047847;28;20321;-77
2022/06/11 02:00:49;;;;;;;5.70;5.15;;;;;;;14.01;100.00;101933.06;1055572;28;20632;-77
2022/06/11 02:01:29;;;;;;;7.78;5.55;;;;;;;14.05;100.00;101939.66;1054122;28;20035;-78
2022/06/11 02:02:22;;;;;;;7.00;5.95;;;;;;;14.24;100.00;101932.53;1056581;28;20066;-78
2022/06/11 02:03:11;;;;;;;9.60;6.60;;;;;;;14.34;100.00;101932.09;1060159;27;20031;-78
2022/06/11 02:03:52;;;;;;;10.90;6.80;;;;;;;14.33;100.00;101925.91;1058327;27;20310;-77
2022/06/11 02:04:55;;;;;;;6.50;5.90;;;;;;;14.22;100.00;101924.72;1055000;28;20036;-77
2022/06/11 02:06:06;;;;;;;7.30;5.75;;;;;;;14.18;100.00;101925.34;1053211;28;20173;-77
2022/06/11 02:07:01;;;;;;;8.52;5.65;;;;;;;14.12;100.00;101926.22;1060874;27;20288;-77
2022/06/11 02:07:42;;;;;;;10.00;5.70;;;;;;;14.01;100.00;101926.91;1056855;27;20304;-77
2022/06/11 02:08:21;;;;;;;6.03;5.18;;;;;;;14.01;100.00;101924.22;1053106;28;20318;-78
2022/06/11 02:09:14;;;;;;;10.80;6.03;;;;;;;14.11;100.00;101929.94;1052002;28;20420;-77
2022/06/11 02:10:08;;;;;;;7.85;6.00;;;;;;;13.97;100.00;101931.00;1052560;28;20290;-77
2022/06/11 02:10:47;;;;;;;12.23;5.43;;;;;;;14.08;100.00;101933.88;1054226;28;20040;-77
2022/06/11 02:11:37;;;;;;;8.48;6.43;;;;;;;14.05;100.00;101923.56;1056472;28;20319;-77
2022/06/11 02:12:14;;;;;;;7.65;5.63;;;;;;;13.93;100.00;101931.44;1051833;28;20309;-77
2022/06/11 02:13:01;;;;;;;8.95;5.47;;;;;;;13.97;100.00;101928.31;1052129;28;20051;-78
2022/06/11 02:13:39;;;;;;;8.82;6.40;;;;;;;13.98;100.00;101933.50;1052217;28;20294;-77
2022/06/11 02:14:23;;;;;;;8.88;4.97;;;;;;;13.93;100.00;101934.09;1052196;28;20473;-77
2022/06/11 02:15:00;;;;;;;9.40;5.82;;;;;;;13.87;100.00;101932.28;1047092;28;20341;-77
2022/06/11 02:15:40;;;;;;;7.18;5.78;;;;;;;13.84;100.00;101932.72;1051710;28;20438;-78
2022/06/11 02:16:27;;;;;;;9.50;6.20;;;;;;;13.82;100.00;101934.78;1048023;28;20309;-77
2022/06/11 02:17:37;;;;;;;6.28;5.68;;;;;;;13.78;100.00;101938.91;1046320;28;20299;-78
2022/06/11 02:18:13;;;;;;;7.95;5.88;;;;;;;13.81;100.00;101932.31;1042829;28;20052;-77
2022/06/11 02:18:46;;;;;;;8.50;6.43;;;;;;;13.77;100.00;101928.41;1039121;28;20303;-77
2022/06/11 02:19:44;;;;;;;11.18;6.32;;;;;;;13.84;100.00;101930.03;1039473;28;20308;-78
2022/06/11 02:20:28;;;;;;;10.60;6.63;;;;;;;13.60;100.00;101930.72;1032911;28;20296;-77
2022/06/11 02:21:07;;;;;;;6.50;5.90;;;;;;;13.60;100.00;101925.34;1049201;28;20354;-78
2022/06/11 02:21:47;;;;;;;7.97;6.95;;;;;;;13.66;100.00;101940.56;1048109;28;20309;-77
2022/06/11 02:22:26;;;;;;;9.50;6.30;;;;;;;13.68;100.00;101927.81;1048115;28;20295;-77
2022/06/11 02:23:02;;;;;;;8.32;6.13;;;;;;;13.76;100.00;101937.47;1051446;28;20101;-78
2022/06/11 02:23:37;;;;;;;7.00;6.07;;;;;;;13.80;100.00;101936.84;1053840;28;20286;-77
2022/06/11 02:24:17;;;;;;;7.93;6.45;;;;;;;13.63;100.00;101927.63;1045718;28;20295;-77
2022/06/11 02:24:52;;;;;;;13.75;7.03;;;;;;;13.64;100.00;101926.56;1046631;28;20288;-78
2022/06/11 02:25:30;;;;;;;10.60;6.93;;;;;;;13.67;100.00;101925.34;1042390;28;20038;-77
2022/06/11 02:26:09;;;;;;;9.40;6.43;;;;;;;13.52;100.00;101929.09;1042333;28;20334;-78
2022/06/11 02:26:44;;;;;;;9.10;6.97;;;;;;;13.65;100.00;101932.75;1046752;28;20832;-78
2022/06/11 02:27:18;;;;;;;9.05;7.25;;;;;;;13.65;100.00;101928.22;1052946;28;20821;-77
2022/06/11 02:27:52;;;;;;;7.82;6.95;;;;;;;13.55;100.00;101933.19;1058480;27;20054;-81
2022/06/11 02:28:28;;;;;;;8.40;6.85;;;;;;;13.52;100.00;101928.25;1056175;28;20351;-78
2022/06/11 02:29:03;;;;;;;10.30;7.05;;;;;;;13.65;100.00;101932.75;1056496;28;20315;-78
2022/06/11 02:29:35;;;;;;;9.57;6.65;;;;;;;13.62;100.00;101928.66;1056575;28;20036;-77
2022/06/11 02:30:10;;;;;;;10.02;7.30;;;;;;;13.56;100.00;101930.31;1052186;28;20040;-78
2022/06/11 02:30:44;;;;;;;10.57;7.57;;;;;;;13.55;100.00;101933.19;1044157;28;20792;-78
2022/06/11 02:31:18;;;;;;;7.90;6.47;;;;;;;13.63;100.00;101941.00;1044062;28;20291;-78
2022/06/11 02:31:54;;;;;;;17.77;7.60;;;;;;;13.67;100.00;101926.16;1046248;28;20310;-78
2022/06/11 02:32:28;;;;;;;7.88;6.85;;;;;;;13.75;100.00;101936.66;1052008;28;20123;-78
2022/06/11 02:33:00;;;;;;;8.00;7.20;;;;;;;13.70;100.00;101941.84;1052127;28;20032;-78
2022/06/11 02:33:34;;;;;;;8.63;7.72;;;;;;;13.66;100.00;101935.22;1052569;28;20293;-78
2022/06/11 02:34:08;;;;;;;14.30;7.47;;;;;;;13.57;100.00;101937.31;1057347;27;20825;-78
2022/06/11 02:34:45;;;;;;;10.55;7.03;;;;;;;13.60;100.00;101936.06;1053410;28;20298;-78
2022/06/11 02:35:31;;;;;;;10.43;7.07;;;;;;;13.46;100.00;101934.47;1054110;28;20735;-78
2022/06/11 02:36:09;;;;;;;10.50;7.07;;;;;;;13.25;100.00;101936.31;1055482;28;20305;-78
2022/06/11 02:37:09;;;;;;;10.43;7.03;;;;;;;13.30;100.00;101928.50;1056195;28;20297;-78
2022/06/11 02:37:45;;;;;;;10.38;6.28;;;;;;;13.41;100.00;101942.25;1052189;28;20325;-78
2022/06/11 02:38:22;;;;;;;7.45;5.50;;;;;;;13.27;100.00;101936.94;1055285;28;20304;-78
2022/06/11 02:38:56;;;;;;;7.25;6.60;;;;;;;13.42;100.00;101930.53;1055405;28;20825;-78
2022/06/11 02:39:32;;;;;;;8.95;7.28;;;;;;;13.49;100.00;101940.22;1052105;28;20048;-78
2022/06/11 02:40:09;;;;;;;10.50;7.15;;;;;;;13.47;100.00;101933.44;1052902;28;20696;-78
2022/06/11 02:40:45;;;;;;;9.00;6.90;;;;;;;13.44;100.00;101937.34;1054544;28;20297;-78
2022/06/11 02:41:21;;;;;;;11.55;8.20;;;;;;;13.17;100.00;101939.22;1052694;28;20306;-80
2022/06/11 02:41:54;;;;;;;12.88;7.18;;;;;;;13.25;100.00;101939.00;1052295;28;20377;-80
2022/06/11 02:42:26;;;;;;;9.05;6.95;;;;;;;13.40;100.00;101935.25;1051864;28;20831;-81
2022/06/11 02:42:58;;;;;;;8.70;7.25;;;;;;;13.43;100.00;101933.03;1048755;28;20286;-81
2022/06/11 02:43:30;;;;;;;8.93;7.25;;;;;;;13.37;100.00;101943.72;1053109;28;20302;-81
2022/06/11 02:44:02;;;;;;;12.95;8.90;;;;;;;13.52;100.00;101933.63;1053387;28;20297;-82
2022/06/11 02:44:35;;;;;;;8.77;7.68;;;;;;;13.54;100.00;101940.41;1060487;27;20761;-80
2022/06/11 02:45:10;;;;;;;10.88;8.27;;;;;;;13.46;100.00;101939.81;1060427;27;20670;-79
2022/06/11 02:45:42;;;;;;;11.27;8.98;;;;;;;13.53;100.00;101945.97;1064821;27;20302;-79
2022/06/11 02:47:04;;;;;;;16.60;9.88;;;;;;;13.58;100.00;101940.81;1055072;28;20289;-79
2022/06/11 02:47:37;;;;;;;11.15;9.10;;;;;;;13.65;100.00;101944.28;1052226;28;20044;-80
2022/06/11 02:48:10;;;;;;;13.40;9.00;;;;;;;13.73;100.00;101944.09;1054907;28;20304;-79
2022/06/11 02:48:42;;;;;;;15.50;10.27;;;;;;;13.67;100.00;101942.22;1052136;28;20675;-79
2022/06/11 02:49:19;;;;;;;11.57;9.48;;;;;;;13.59;100.00;101942.44;1048643;28;20295;-79
2022/06/11 02:49:50;;;;;;;9.02;8.10;;;;;;;13.46;100.00;101939.81;1051162;28;20292;-80
2022/06/11 02:50:29;;;;;;;16.25;9.27;;;;;;;13.40;100.00;101944.13;1054866;27;20298;-79
2022/06/11 02:51:01;;;;;;;10.52;9.52;;;;;;;13.48;100.00;101945.78;1058301;27;20304;-79
2022/06/11 02:51:32;;;;;;;13.15;10.07;;;;;;;13.57;100.00;101950.69;1054394;28;20723;-81
2022/06/11 02:52:08;;;;;;;11.20;9.73;;;;;;;13.81;100.00;101943.84;1054558;28;20775;-80
2022/06/11 02:52:41;;;;;;;14.00;11.38;;;;;;;13.74;100.00;101948.41;1052147;28;20286;-79
2022/06/11 02:53:14;;;;;;;9.68;8.35;;;;;;;13.62;100.00;101947.38;1057710;27;20296;-79
2022/06/11 02:53:46;;;;;;;11.30;9.40;;;;;;;13.64;100.00;101942.63;1052858;28;20791;-80
2022/06/11 02:54:19;;;;;;;11.35;8.40;;;;;;;13.63;100.00;101942.84;1050372;28;20294;-79
2022/06/11 02:54:51;;;;;;;12.05;9.48;;;;;;;13.72;100.00;101945.13;1054027;28;21081;-79
2022/06/11 02:55:25;;;;;;;10.65;9.55;;;;;;;13.68;100.00;101943.03;1048824;28;20306;-79
2022/06/11 02:55:57;;;;;;;10.23;9.40;;;;;;;13.59;100.00;101945.13;1055815;27;20297;-78
2022/06/11 02:56:29;;;;;;;9.55;8.57;;;;;;;13.60;100.00;101944.09;1054417;28;20289;-78
2022/06/11 02:57:03;;;;;;;12.85;8.77;;;;;;;13.55;100.00;101941.22;1052807;28;20309;-78
2022/06/11 02:57:35;;;;;;;9.77;8.35;;;;;;;13.36;100.00;101948.25;1052702;28;20304;-78
2022/06/11 02:58:08;;;;;;;11.00;8.85;;;;;;;13.34;100.00;101946.81;1052842;28;20302;-78
2022/06/11 02:58:41;;;;;;;10.95;8.82;;;;;;;13.49;100.00;101939.41;1051269;28;20293;-78
2022/06/11 02:59:20;;;;;;;13.00;8.35;;;;;;;13.76;100.00;101943.66;1052248;28;20423;-79
2022/06/11 02:59:53;;;;;;;12.23;9.18;;;;;;;13.79;100.00;101943.25;1054089;28;20297;-79